sensor_id;sensor_type;location;lat;lon;timestamp;temperature;humidity
8231;DHT22;4156;50.908;6.974;2022-10-22T00:01:47;16.30;99.90
8231;DHT22;4156;50.908;6.974;2022-10-22T00:04:13;16.30;99.90
8231;DHT22;4156;50.908;6.974;2022-10-22T00:06:38;16.30;99.90
8231;DHT22;4156;50.908;6.974;2022-10-22T00:09:05;16.30;99.90
8231;DHT22;4156;50.908;6.974;2022-10-22T00:11:31;16.30;99.90
8231;DHT22;4156;50.908;6.974;2022-10-22T00:13:57;16.30;99.90
8231;DHT22;4156;50.908;6.974;2022-10-22T00:16:22;16.30;99.90
8231;DHT22;4156;50.908;6.974;2022-10-22T00:18:48;16.30;99.90
8231;DHT22;4156;50.908;6.974;2022-10-22T00:21:13;16.30;99.90
8231;DHT22;4156;50.908;6.974;2022-10-22T00:23:40;16.30;99.90
8231;DHT22;4156;50.908;6.974;2022-10-22T00:26:07;16.30;99.90
8231;DHT22;4156;50.908;6.974;2022-10-22T00:28:32;16.30;99.90
8231;DHT22;4156;50.908;6.974;2022-10-22T00:30:59;16.30;99.90
8231;DHT22;4156;50.908;6.974;2022-10-22T00:33:25;16.30;99.90
8231;DHT22;4156;50.908;6.974;2022-10-22T00:35:51;16.40;99.90
8231;DHT22;4156;50.908;6.974;2022-10-22T00:38:17;16.30;99.90
8231;DHT22;4156;50.908;6.974;2022-10-22T00:40:43;16.30;99.90
8231;DHT22;4156;50.908;6.974;2022-10-22T00:43:13;16.30;99.90
8231;DHT22;4156;50.908;6.974;2022-10-22T00:45:39;16.30;99.90
8231;DHT22;4156;50.908;6.974;2022-10-22T00:50:55;16.30;99.90
8231;DHT22;4156;50.908;6.974;2022-10-22T00:55:55;16.30;99.90
8231;DHT22;4156;50.908;6.974;2022-10-22T00:58:27;16.30;99.90
8231;DHT22;4156;50.908;6.974;2022-10-22T01:00:55;16.30;99.90
8231;DHT22;4156;50.908;6.974;2022-10-22T01:03:20;16.20;99.90
8231;DHT22;4156;50.908;6.974;2022-10-22T01:05:55;16.20;99.90
8231;DHT22;4156;50.908;6.974;2022-10-22T01:11:07;16.20;99.90
8231;DHT22;4156;50.908;6.974;2022-10-22T01:16:11;16.20;99.90
8231;DHT22;4156;50.908;6.974;2022-10-22T01:18:58;16.20;99.90
8231;DHT22;4156;50.908;6.974;2022-10-22T01:21:40;16.20;99.90
8231;DHT22;4156;50.908;6.974;2022-10-22T01:24:22;16.20;99.90
8231;DHT22;4156;50.908;6.974;2022-10-22T01:26:59;16.20;99.90
8231;DHT22;4156;50.908;6.974;2022-10-22T01:29:33;16.20;99.90
8231;DHT22;4156;50.908;6.974;2022-10-22T01:32:05;16.20;99.90
8231;DHT22;4156;50.908;6.974;2022-10-22T01:34:32;16.20;99.90
8231;DHT22;4156;50.908;6.974;2022-10-22T01:36:59;16.20;99.90
8231;DHT22;4156;50.908;6.974;2022-10-22T01:39:27;16.20;99.90
8231;DHT22;4156;50.908;6.974;2022-10-22T01:41:54;16.20;99.90
8231;DHT22;4156;50.908;6.974;2022-10-22T01:44:28;16.20;99.90
8231;DHT22;4156;50.908;6.974;2022-10-22T01:47:07;16.20;99.90
8231;DHT22;4156;50.908;6.974;2022-10-22T01:49:48;16.20;99.90
8231;DHT22;4156;50.908;6.974;2022-10-22T01:55:26;16.20;99.90
8231;DHT22;4156;50.908;6.974;2022-10-22T02:01:04;16.20;99.90
8231;DHT22;4156;50.908;6.974;2022-10-22T02:03:50;16.20;99.90
8231;DHT22;4156;50.908;6.974;2022-10-22T02:06:20;16.20;99.90
8231;DHT22;4156;50.908;6.974;2022-10-22T02:08:47;16.20;99.90
8231;DHT22;4156;50.908;6.974;2022-10-22T02:11:14;16.20;99.90
8231;DHT22;4156;50.908;6.974;2022-10-22T02:13:46;16.10;99.90
8231;DHT22;4156;50.908;6.974;2022-10-22T02:16:37;16.10;99.90
8231;DHT22;4156;50.908;6.974;2022-10-22T02:19:23;16.10;99.90
8231;DHT22;4156;50.908;6.974;2022-10-22T02:21:50;16.10;99.90
8231;DHT22;4156;50.908;6.974;2022-10-22T02:24:16;16.20;99.90
8231;DHT22;4156;50.908;6.974;2022-10-22T02:29:45;16.10;99.90
8231;DHT22;4156;50.908;6.974;2022-10-22T02:32:17;16.10;99.90
8231;DHT22;4156;50.908;6.974;2022-10-22T02:34:46;16.10;99.90
8231;DHT22;4156;50.908;6.974;2022-10-22T02:37:13;16.10;99.90
8231;DHT22;4156;50.908;6.974;2022-10-22T02:39:40;16.10;99.90
8231;DHT22;4156;50.908;6.974;2022-10-22T02:42:05;16.10;99.90
8231;DHT22;4156;50.908;6.974;2022-10-22T02:44:32;16.10;99.90
8231;DHT22;4156;50.908;6.974;2022-10-22T02:46:58;16.10;99.90
8231;DHT22;4156;50.908;6.974;2022-10-22T02:49:24;16.10;99.90
8231;DHT22;4156;50.908;6.974;2022-10-22T02:51:49;16.10;99.90
8231;DHT22;4156;50.908;6.974;2022-10-22T02:54:15;16.10;99.90
8231;DHT22;4156;50.908;6.974;2022-10-22T02:56:40;16.10;99.90
8231;DHT22;4156;50.908;6.974;2022-10-22T02:59:06;16.10;99.90
8231;DHT22;4156;50.908;6.974;2022-10-22T03:01:31;16.10;99.90
8231;DHT22;4156;50.908;6.974;2022-10-22T03:03:57;16.10;99.90
8231;DHT22;4156;50.908;6.974;2022-10-22T03:06:22;16.00;99.90
8231;DHT22;4156;50.908;6.974;2022-10-22T03:08:48;16.00;99.90
8231;DHT22;4156;50.908;6.974;2022-10-22T03:11:13;16.00;99.90
8231;DHT22;4156;50.908;6.974;2022-10-22T03:13:39;16.00;99.90
8231;DHT22;4156;50.908;6.974;2022-10-22T03:16:05;16.00;99.90
8231;DHT22;4156;50.908;6.974;2022-10-22T03:18:30;16.00;99.90
8231;DHT22;4156;50.908;6.974;2022-10-22T03:23:50;16.00;99.90
8231;DHT22;4156;50.908;6.974;2022-10-22T03:26:16;16.00;99.90
8231;DHT22;4156;50.908;6.974;2022-10-22T03:28:42;16.00;99.90
8231;DHT22;4156;50.908;6.974;2022-10-22T03:31:08;16.00;99.90
8231;DHT22;4156;50.908;6.974;2022-10-22T03:33:33;16.00;99.90
8231;DHT22;4156;50.908;6.974;2022-10-22T03:35:59;16.00;99.90
8231;DHT22;4156;50.908;6.974;2022-10-22T03:38:25;16.00;99.90
8231;DHT22;4156;50.908;6.974;2022-10-22T03:40:51;16.00;99.90
8231;DHT22;4156;50.908;6.974;2022-10-22T03:43:17;16.00;99.90
8231;DHT22;4156;50.908;6.974;2022-10-22T03:45:42;16.00;99.90
8231;DHT22;4156;50.908;6.974;2022-10-22T03:48:08;16.00;99.90
8231;DHT22;4156;50.908;6.974;2022-10-22T03:50:33;16.00;99.90
8231;DHT22;4156;50.908;6.974;2022-10-22T03:52:59;16.00;99.90
8231;DHT22;4156;50.908;6.974;2022-10-22T03:55:24;16.00;99.90
8231;DHT22;4156;50.908;6.974;2022-10-22T03:57:50;15.90;99.90
8231;DHT22;4156;50.908;6.974;2022-10-22T04:00:16;15.90;99.90
8231;DHT22;4156;50.908;6.974;2022-10-22T04:02:41;15.90;99.90
8231;DHT22;4156;50.908;6.974;2022-10-22T04:05:07;15.90;99.90
8231;DHT22;4156;50.908;6.974;2022-10-22T04:07:33;15.90;99.90
8231;DHT22;4156;50.908;6.974;2022-10-22T04:09:58;15.90;99.90
8231;DHT22;4156;50.908;6.974;2022-10-22T04:12:24;15.90;99.90
8231;DHT22;4156;50.908;6.974;2022-10-22T04:14:49;15.90;99.90
8231;DHT22;4156;50.908;6.974;2022-10-22T04:17:15;15.90;99.90
8231;DHT22;4156;50.908;6.974;2022-10-22T04:19:40;15.90;99.90
8231;DHT22;4156;50.908;6.974;2022-10-22T04:22:06;15.90;99.90
8231;DHT22;4156;50.908;6.974;2022-10-22T04:24:31;15.90;99.90
8231;DHT22;4156;50.908;6.974;2022-10-22T04:26:57;15.90;99.90
8231;DHT22;4156;50.908;6.974;2022-10-22T04:29:23;15.90;99.90
8231;DHT22;4156;50.908;6.974;2022-10-22T04:31:49;15.90;99.90
8231;DHT22;4156;50.908;6.974;2022-10-22T04:34:14;15.90;99.90
8231;DHT22;4156;50.908;6.974;2022-10-22T04:36:40;15.80;99.90
8231;DHT22;4156;50.908;6.974;2022-10-22T04:39:05;15.80;99.90
8231;DHT22;4156;50.908;6.974;2022-10-22T04:41:34;15.80;99.90
8231;DHT22;4156;50.908;6.974;2022-10-22T04:44:00;15.80;99.90
8231;DHT22;4156;50.908;6.974;2022-10-22T04:46:28;15.80;99.90
8231;DHT22;4156;50.908;6.974;2022-10-22T04:48:54;15.80;99.90
8231;DHT22;4156;50.908;6.974;2022-10-22T04:51:21;15.70;99.90
8231;DHT22;4156;50.908;6.974;2022-10-22T04:53:47;15.70;99.90
8231;DHT22;4156;50.908;6.974;2022-10-22T04:56:16;15.70;99.90
8231;DHT22;4156;50.908;6.974;2022-10-22T04:58:46;15.70;99.90
8231;DHT22;4156;50.908;6.974;2022-10-22T05:01:21;15.70;99.90
8231;DHT22;4156;50.908;6.974;2022-10-22T05:03:48;15.70;99.90
8231;DHT22;4156;50.908;6.974;2022-10-22T05:06:14;15.70;99.90
8231;DHT22;4156;50.908;6.974;2022-10-22T05:08:40;15.70;99.90
8231;DHT22;4156;50.908;6.974;2022-10-22T05:11:11;15.70;99.90
8231;DHT22;4156;50.908;6.974;2022-10-22T05:13:36;15.70;99.90
8231;DHT22;4156;50.908;6.974;2022-10-22T05:16:02;15.60;99.90
8231;DHT22;4156;50.908;6.974;2022-10-22T05:18:27;15.60;99.90
8231;DHT22;4156;50.908;6.974;2022-10-22T05:20:53;15.60;99.90
8231;DHT22;4156;50.908;6.974;2022-10-22T05:23:18;15.70;99.90
8231;DHT22;4156;50.908;6.974;2022-10-22T05:25:44;15.60;99.90
8231;DHT22;4156;50.908;6.974;2022-10-22T05:28:09;15.60;99.90
8231;DHT22;4156;50.908;6.974;2022-10-22T05:30:35;15.60;99.90
8231;DHT22;4156;50.908;6.974;2022-10-22T05:33:00;15.60;99.90
8231;DHT22;4156;50.908;6.974;2022-10-22T05:35:26;15.60;99.90
8231;DHT22;4156;50.908;6.974;2022-10-22T05:37:51;15.60;99.90
8231;DHT22;4156;50.908;6.974;2022-10-22T05:40:17;15.60;99.90
8231;DHT22;4156;50.908;6.974;2022-10-22T05:42:42;15.60;99.90
8231;DHT22;4156;50.908;6.974;2022-10-22T05:45:08;15.60;99.90
8231;DHT22;4156;50.908;6.974;2022-10-22T05:47:34;15.60;99.90
8231;DHT22;4156;50.908;6.974;2022-10-22T05:49:59;15.60;99.90
8231;DHT22;4156;50.908;6.974;2022-10-22T05:52:25;15.50;99.90
8231;DHT22;4156;50.908;6.974;2022-10-22T05:54:51;15.50;99.90
8231;DHT22;4156;50.908;6.974;2022-10-22T05:57:17;15.50;99.90
8231;DHT22;4156;50.908;6.974;2022-10-22T05:59:43;15.50;99.90
8231;DHT22;4156;50.908;6.974;2022-10-22T06:02:08;15.50;99.90
8231;DHT22;4156;50.908;6.974;2022-10-22T06:04:34;15.50;99.90
8231;DHT22;4156;50.908;6.974;2022-10-22T06:07:00;15.50;99.90
8231;DHT22;4156;50.908;6.974;2022-10-22T06:09:29;15.50;99.90
8231;DHT22;4156;50.908;6.974;2022-10-22T06:11:56;15.50;99.90
8231;DHT22;4156;50.908;6.974;2022-10-22T06:14:23;15.40;99.90
8231;DHT22;4156;50.908;6.974;2022-10-22T06:16:49;15.40;99.90
8231;DHT22;4156;50.908;6.974;2022-10-22T06:19:17;15.50;99.90
8231;DHT22;4156;50.908;6.974;2022-10-22T06:21:43;15.50;99.90
8231;DHT22;4156;50.908;6.974;2022-10-22T06:24:09;15.40;99.90
8231;DHT22;4156;50.908;6.974;2022-10-22T06:26:35;15.40;99.90
8231;DHT22;4156;50.908;6.974;2022-10-22T06:29:01;15.40;99.90
8231;DHT22;4156;50.908;6.974;2022-10-22T06:31:27;15.40;99.90
8231;DHT22;4156;50.908;6.974;2022-10-22T06:33:55;15.40;99.90
8231;DHT22;4156;50.908;6.974;2022-10-22T06:36:22;15.50;99.90
8231;DHT22;4156;50.908;6.974;2022-10-22T06:38:51;15.40;99.90
8231;DHT22;4156;50.908;6.974;2022-10-22T06:41:17;15.50;99.90
8231;DHT22;4156;50.908;6.974;2022-10-22T06:43:44;15.50;99.90
8231;DHT22;4156;50.908;6.974;2022-10-22T06:46:12;15.50;99.90
8231;DHT22;4156;50.908;6.974;2022-10-22T06:48:38;15.50;99.90
8231;DHT22;4156;50.908;6.974;2022-10-22T06:51:06;15.50;99.90
8231;DHT22;4156;50.908;6.974;2022-10-22T06:53:32;15.50;99.90
8231;DHT22;4156;50.908;6.974;2022-10-22T06:56:01;15.60;99.90
8231;DHT22;4156;50.908;6.974;2022-10-22T06:58:28;15.50;99.90
8231;DHT22;4156;50.908;6.974;2022-10-22T07:01:06;15.50;99.90
8231;DHT22;4156;50.908;6.974;2022-10-22T07:03:32;15.50;99.90
8231;DHT22;4156;50.908;6.974;2022-10-22T07:05:59;15.50;99.90
8231;DHT22;4156;50.908;6.974;2022-10-22T07:08:25;15.50;99.90
8231;DHT22;4156;50.908;6.974;2022-10-22T07:10:51;15.50;99.90
8231;DHT22;4156;50.908;6.974;2022-10-22T07:13:16;15.50;99.90
8231;DHT22;4156;50.908;6.974;2022-10-22T07:15:42;15.50;99.90
8231;DHT22;4156;50.908;6.974;2022-10-22T07:18:07;15.60;99.90
8231;DHT22;4156;50.908;6.974;2022-10-22T07:20:33;15.50;99.90
8231;DHT22;4156;50.908;6.974;2022-10-22T07:22:58;15.60;99.90
8231;DHT22;4156;50.908;6.974;2022-10-22T07:25:24;15.60;99.90
8231;DHT22;4156;50.908;6.974;2022-10-22T07:27:49;15.60;99.90
8231;DHT22;4156;50.908;6.974;2022-10-22T07:30:15;15.60;99.90
8231;DHT22;4156;50.908;6.974;2022-10-22T07:32:40;15.60;99.90
8231;DHT22;4156;50.908;6.974;2022-10-22T07:35:06;15.60;99.90
8231;DHT22;4156;50.908;6.974;2022-10-22T07:37:32;15.70;99.90
8231;DHT22;4156;50.908;6.974;2022-10-22T07:39:57;15.70;99.90
8231;DHT22;4156;50.908;6.974;2022-10-22T07:42:22;15.80;99.90
8231;DHT22;4156;50.908;6.974;2022-10-22T07:44:48;15.80;99.90
8231;DHT22;4156;50.908;6.974;2022-10-22T07:47:14;15.80;99.90
8231;DHT22;4156;50.908;6.974;2022-10-22T07:49:40;16.00;99.90
8231;DHT22;4156;50.908;6.974;2022-10-22T07:52:06;16.10;99.90
8231;DHT22;4156;50.908;6.974;2022-10-22T07:54:32;16.10;99.90
8231;DHT22;4156;50.908;6.974;2022-10-22T07:56:57;16.20;99.90
8231;DHT22;4156;50.908;6.974;2022-10-22T07:59:23;16.20;99.90
8231;DHT22;4156;50.908;6.974;2022-10-22T08:01:48;16.20;99.90
8231;DHT22;4156;50.908;6.974;2022-10-22T08:04:14;16.20;99.90
8231;DHT22;4156;50.908;6.974;2022-10-22T08:06:40;16.30;99.90
8231;DHT22;4156;50.908;6.974;2022-10-22T08:09:05;16.30;99.90
8231;DHT22;4156;50.908;6.974;2022-10-22T08:11:31;16.30;99.90
8231;DHT22;4156;50.908;6.974;2022-10-22T08:13:58;16.30;99.90
8231;DHT22;4156;50.908;6.974;2022-10-22T08:16:23;16.30;99.90
8231;DHT22;4156;50.908;6.974;2022-10-22T08:18:49;16.30;99.90
8231;DHT22;4156;50.908;6.974;2022-10-22T08:21:15;16.30;99.90
8231;DHT22;4156;50.908;6.974;2022-10-22T08:23:42;16.30;99.90
8231;DHT22;4156;50.908;6.974;2022-10-22T08:26:08;16.30;99.90
8231;DHT22;4156;50.908;6.974;2022-10-22T08:28:34;16.30;99.90
8231;DHT22;4156;50.908;6.974;2022-10-22T08:31:02;16.30;99.90
8231;DHT22;4156;50.908;6.974;2022-10-22T08:33:28;16.30;99.90
8231;DHT22;4156;50.908;6.974;2022-10-22T08:35:54;16.30;99.90
8231;DHT22;4156;50.908;6.974;2022-10-22T08:38:19;16.30;99.90
8231;DHT22;4156;50.908;6.974;2022-10-22T08:40:55;16.30;99.90
8231;DHT22;4156;50.908;6.974;2022-10-22T08:43:32;16.30;99.90
8231;DHT22;4156;50.908;6.974;2022-10-22T08:48:42;16.30;99.90
8231;DHT22;4156;50.908;6.974;2022-10-22T08:51:16;16.30;99.90
8231;DHT22;4156;50.908;6.974;2022-10-22T08:59:49;16.30;99.90
8231;DHT22;4156;50.908;6.974;2022-10-22T09:07:42;16.30;99.90
8231;DHT22;4156;50.908;6.974;2022-10-22T09:10:13;16.30;99.90
8231;DHT22;4156;50.908;6.974;2022-10-22T09:12:38;16.30;99.90
8231;DHT22;4156;50.908;6.974;2022-10-22T09:15:04;16.50;99.90
8231;DHT22;4156;50.908;6.974;2022-10-22T09:17:40;16.30;99.90
8231;DHT22;4156;50.908;6.974;2022-10-22T09:20:20;16.40;99.90
8231;DHT22;4156;50.908;6.974;2022-10-22T09:25:41;16.40;99.90
8231;DHT22;4156;50.908;6.974;2022-10-22T09:28:09;16.40;99.90
8231;DHT22;4156;50.908;6.974;2022-10-22T09:30:36;16.40;99.90
8231;DHT22;4156;50.908;6.974;2022-10-22T09:35:56;16.40;99.90
8231;DHT22;4156;50.908;6.974;2022-10-22T09:38:25;16.40;99.90
8231;DHT22;4156;50.908;6.974;2022-10-22T09:40:54;16.40;99.90
8231;DHT22;4156;50.908;6.974;2022-10-22T09:43:20;16.40;99.90
8231;DHT22;4156;50.908;6.974;2022-10-22T09:45:46;16.40;99.90
8231;DHT22;4156;50.908;6.974;2022-10-22T09:48:28;16.40;99.90
8231;DHT22;4156;50.908;6.974;2022-10-22T09:51:19;16.40;99.90
8231;DHT22;4156;50.908;6.974;2022-10-22T09:53:56;16.40;99.90
8231;DHT22;4156;50.908;6.974;2022-10-22T09:56:26;16.40;99.90
8231;DHT22;4156;50.908;6.974;2022-10-22T09:58:55;16.40;99.90
8231;DHT22;4156;50.908;6.974;2022-10-22T10:01:25;16.40;99.90
8231;DHT22;4156;50.908;6.974;2022-10-22T10:03:51;16.40;99.90
8231;DHT22;4156;50.908;6.974;2022-10-22T10:06:20;16.40;99.90
8231;DHT22;4156;50.908;6.974;2022-10-22T10:08:47;16.40;99.90
8231;DHT22;4156;50.908;6.974;2022-10-22T10:11:26;16.50;99.90
8231;DHT22;4156;50.908;6.974;2022-10-22T10:27:38;16.50;99.90
8231;DHT22;4156;50.908;6.974;2022-10-22T10:30:12;16.50;99.90
8231;DHT22;4156;50.908;6.974;2022-10-22T10:41:10;16.50;99.90
8231;DHT22;4156;50.908;6.974;2022-10-22T10:49:00;16.60;99.90
8231;DHT22;4156;50.908;6.974;2022-10-22T10:54:28;16.60;99.90
8231;DHT22;4156;50.908;6.974;2022-10-22T10:56:57;16.60;99.90
8231;DHT22;4156;50.908;6.974;2022-10-22T10:59:28;16.60;99.90
8231;DHT22;4156;50.908;6.974;2022-10-22T11:02:28;16.60;99.90
8231;DHT22;4156;50.908;6.974;2022-10-22T11:10:45;16.60;99.90
8231;DHT22;4156;50.908;6.974;2022-10-22T11:15:40;16.70;99.90
8231;DHT22;4156;50.908;6.974;2022-10-22T11:18:36;16.70;99.90
8231;DHT22;4156;50.908;6.974;2022-10-22T11:21:21;16.70;99.90
8231;DHT22;4156;50.908;6.974;2022-10-22T11:23:54;16.70;99.90
8231;DHT22;4156;50.908;6.974;2022-10-22T11:29:34;16.70;99.90
8231;DHT22;4156;50.908;6.974;2022-10-22T11:32:03;16.70;99.90
8231;DHT22;4156;50.908;6.974;2022-10-22T11:34:33;16.70;99.90
8231;DHT22;4156;50.908;6.974;2022-10-22T11:37:02;16.70;99.90
8231;DHT22;4156;50.908;6.974;2022-10-22T11:39:42;16.70;99.90
8231;DHT22;4156;50.908;6.974;2022-10-22T11:42:17;16.70;99.90
8231;DHT22;4156;50.908;6.974;2022-10-22T11:45:02;16.70;99.90
8231;DHT22;4156;50.908;6.974;2022-10-22T11:47:33;16.80;99.90
8231;DHT22;4156;50.908;6.974;2022-10-22T11:50:22;16.80;99.90
8231;DHT22;4156;50.908;6.974;2022-10-22T11:53:01;16.80;99.90
8231;DHT22;4156;50.908;6.974;2022-10-22T11:55:51;16.80;99.90
8231;DHT22;4156;50.908;6.974;2022-10-22T11:58:29;16.80;99.90
8231;DHT22;4156;50.908;6.974;2022-10-22T12:00:57;16.80;99.90
8231;DHT22;4156;50.908;6.974;2022-10-22T12:06:25;16.80;99.90
8231;DHT22;4156;50.908;6.974;2022-10-22T12:09:00;16.80;99.90
8231;DHT22;4156;50.908;6.974;2022-10-22T12:11:44;16.80;99.90
8231;DHT22;4156;50.908;6.974;2022-10-22T12:16:52;16.80;99.90
8231;DHT22;4156;50.908;6.974;2022-10-22T12:19:29;16.80;99.90
8231;DHT22;4156;50.908;6.974;2022-10-22T12:21:58;16.80;99.90
8231;DHT22;4156;50.908;6.974;2022-10-22T12:24:30;16.90;99.90
8231;DHT22;4156;50.908;6.974;2022-10-22T12:26:56;16.90;99.90
8231;DHT22;4156;50.908;6.974;2022-10-22T12:29:22;16.90;99.90
8231;DHT22;4156;50.908;6.974;2022-10-22T12:31:49;16.90;99.90
8231;DHT22;4156;50.908;6.974;2022-10-22T12:34:17;16.80;99.90
8231;DHT22;4156;50.908;6.974;2022-10-22T12:36:46;16.90;99.90
8231;DHT22;4156;50.908;6.974;2022-10-22T12:39:18;16.90;99.90
8231;DHT22;4156;50.908;6.974;2022-10-22T12:41:44;16.90;99.90
8231;DHT22;4156;50.908;6.974;2022-10-22T12:44:16;16.90;99.90
8231;DHT22;4156;50.908;6.974;2022-10-22T12:46:43;16.90;99.90
8231;DHT22;4156;50.908;6.974;2022-10-22T12:49:19;16.90;99.90
8231;DHT22;4156;50.908;6.974;2022-10-22T12:51:46;16.90;99.90
8231;DHT22;4156;50.908;6.974;2022-10-22T12:54:31;16.90;99.90
8231;DHT22;4156;50.908;6.974;2022-10-22T12:56:57;17.00;99.90
8231;DHT22;4156;50.908;6.974;2022-10-22T12:59:26;17.00;99.90
8231;DHT22;4156;50.908;6.974;2022-10-22T13:01:54;17.00;99.90
8231;DHT22;4156;50.908;6.974;2022-10-22T13:09:40;17.00;99.90
8231;DHT22;4156;50.908;6.974;2022-10-22T13:12:09;17.00;99.90
8231;DHT22;4156;50.908;6.974;2022-10-22T13:14:39;17.00;99.90
8231;DHT22;4156;50.908;6.974;2022-10-22T13:17:06;17.00;99.90
8231;DHT22;4156;50.908;6.974;2022-10-22T13:24:55;17.00;99.90
8231;DHT22;4156;50.908;6.974;2022-10-22T13:27:22;17.10;99.90
8231;DHT22;4156;50.908;6.974;2022-10-22T13:29:47;17.10;99.90
8231;DHT22;4156;50.908;6.974;2022-10-22T13:32:32;17.10;99.90
8231;DHT22;4156;50.908;6.974;2022-10-22T13:35:00;17.10;99.90
8231;DHT22;4156;50.908;6.974;2022-10-22T13:37:28;17.10;99.90
8231;DHT22;4156;50.908;6.974;2022-10-22T13:39:55;17.00;99.90
8231;DHT22;4156;50.908;6.974;2022-10-22T13:42:20;17.10;99.90
8231;DHT22;4156;50.908;6.974;2022-10-22T13:44:46;17.10;99.90
8231;DHT22;4156;50.908;6.974;2022-10-22T13:47:38;17.20;99.90
8231;DHT22;4156;50.908;6.974;2022-10-22T13:50:11;17.20;99.90
8231;DHT22;4156;50.908;6.974;2022-10-22T13:52:41;17.20;99.90
8231;DHT22;4156;50.908;6.974;2022-10-22T13:57:43;17.20;99.90
8231;DHT22;4156;50.908;6.974;2022-10-22T14:00:22;17.20;99.90
8231;DHT22;4156;50.908;6.974;2022-10-22T14:02:51;17.20;99.90
8231;DHT22;4156;50.908;6.974;2022-10-22T14:05:18;17.20;99.90
8231;DHT22;4156;50.908;6.974;2022-10-22T14:07:44;17.30;99.90
8231;DHT22;4156;50.908;6.974;2022-10-22T14:10:22;17.20;99.90
8231;DHT22;4156;50.908;6.974;2022-10-22T14:12:49;17.20;99.90
8231;DHT22;4156;50.908;6.974;2022-10-22T14:15:17;17.20;99.90
8231;DHT22;4156;50.908;6.974;2022-10-22T14:17:48;17.30;99.90
8231;DHT22;4156;50.908;6.974;2022-10-22T14:20:21;17.30;99.90
8231;DHT22;4156;50.908;6.974;2022-10-22T14:22:47;17.30;99.90
8231;DHT22;4156;50.908;6.974;2022-10-22T14:25:27;17.30;99.90
8231;DHT22;4156;50.908;6.974;2022-10-22T14:27:55;17.30;99.90
8231;DHT22;4156;50.908;6.974;2022-10-22T14:30:23;17.30;99.90
8231;DHT22;4156;50.908;6.974;2022-10-22T14:32:50;17.30;99.90
8231;DHT22;4156;50.908;6.974;2022-10-22T14:35:18;17.30;99.90
8231;DHT22;4156;50.908;6.974;2022-10-22T14:37:44;17.30;99.90
8231;DHT22;4156;50.908;6.974;2022-10-22T14:40:16;17.30;99.90
8231;DHT22;4156;50.908;6.974;2022-10-22T14:42:43;17.30;99.90
8231;DHT22;4156;50.908;6.974;2022-10-22T14:45:20;17.30;99.90
8231;DHT22;4156;50.908;6.974;2022-10-22T14:47:46;17.30;99.90
8231;DHT22;4156;50.908;6.974;2022-10-22T14:50:12;17.30;99.90
8231;DHT22;4156;50.908;6.974;2022-10-22T14:52:38;17.30;99.90
8231;DHT22;4156;50.908;6.974;2022-10-22T14:55:05;17.30;99.90
8231;DHT22;4156;50.908;6.974;2022-10-22T14:57:31;17.30;99.90
8231;DHT22;4156;50.908;6.974;2022-10-22T14:59:57;17.30;99.90
8231;DHT22;4156;50.908;6.974;2022-10-22T15:02:22;17.30;99.90
8231;DHT22;4156;50.908;6.974;2022-10-22T15:04:48;17.30;99.90
8231;DHT22;4156;50.908;6.974;2022-10-22T15:07:14;17.30;99.90
8231;DHT22;4156;50.908;6.974;2022-10-22T15:09:40;17.30;99.90
8231;DHT22;4156;50.908;6.974;2022-10-22T15:12:06;17.40;99.90
8231;DHT22;4156;50.908;6.974;2022-10-22T15:14:32;17.40;99.90
8231;DHT22;4156;50.908;6.974;2022-10-22T15:16:58;17.40;99.90
8231;DHT22;4156;50.908;6.974;2022-10-22T15:19:24;17.40;99.90
8231;DHT22;4156;50.908;6.974;2022-10-22T15:21:50;17.40;99.90
8231;DHT22;4156;50.908;6.974;2022-10-22T15:24:15;17.40;99.90
8231;DHT22;4156;50.908;6.974;2022-10-22T15:26:41;17.40;99.90
8231;DHT22;4156;50.908;6.974;2022-10-22T15:29:07;17.40;99.90
8231;DHT22;4156;50.908;6.974;2022-10-22T15:34:10;17.40;99.90
8231;DHT22;4156;50.908;6.974;2022-10-22T15:36:36;17.40;99.90
8231;DHT22;4156;50.908;6.974;2022-10-22T15:39:07;17.40;99.90
8231;DHT22;4156;50.908;6.974;2022-10-22T15:41:33;17.40;99.90
8231;DHT22;4156;50.908;6.974;2022-10-22T15:43:58;17.40;99.90
8231;DHT22;4156;50.908;6.974;2022-10-22T15:46:24;17.40;99.90
8231;DHT22;4156;50.908;6.974;2022-10-22T15:48:52;17.40;99.90
8231;DHT22;4156;50.908;6.974;2022-10-22T15:51:18;17.50;99.90
8231;DHT22;4156;50.908;6.974;2022-10-22T15:53:50;17.40;99.90
8231;DHT22;4156;50.908;6.974;2022-10-22T15:56:16;17.40;99.90
8231;DHT22;4156;50.908;6.974;2022-10-22T15:58:41;17.50;99.90
8231;DHT22;4156;50.908;6.974;2022-10-22T16:01:09;17.50;99.90
8231;DHT22;4156;50.908;6.974;2022-10-22T16:03:35;17.50;99.90
8231;DHT22;4156;50.908;6.974;2022-10-22T16:06:01;17.50;99.90
8231;DHT22;4156;50.908;6.974;2022-10-22T16:08:27;17.50;99.90
8231;DHT22;4156;50.908;6.974;2022-10-22T16:10:53;17.60;99.90
8231;DHT22;4156;50.908;6.974;2022-10-22T16:13:19;17.50;99.90
8231;DHT22;4156;50.908;6.974;2022-10-22T16:15:46;17.50;99.90
8231;DHT22;4156;50.908;6.974;2022-10-22T16:18:11;17.50;99.90
8231;DHT22;4156;50.908;6.974;2022-10-22T16:20:38;17.50;99.90
8231;DHT22;4156;50.908;6.974;2022-10-22T16:23:04;17.50;99.90
8231;DHT22;4156;50.908;6.974;2022-10-22T16:25:29;17.40;99.90
8231;DHT22;4156;50.908;6.974;2022-10-22T16:27:55;17.50;99.90
8231;DHT22;4156;50.908;6.974;2022-10-22T16:30:20;17.50;99.90
8231;DHT22;4156;50.908;6.974;2022-10-22T16:32:46;17.50;99.90
8231;DHT22;4156;50.908;6.974;2022-10-22T16:35:11;17.40;99.90
8231;DHT22;4156;50.908;6.974;2022-10-22T16:37:37;17.50;99.90
8231;DHT22;4156;50.908;6.974;2022-10-22T16:40:03;17.50;99.90
8231;DHT22;4156;50.908;6.974;2022-10-22T16:42:29;17.50;99.90
8231;DHT22;4156;50.908;6.974;2022-10-22T16:44:54;17.50;99.90
8231;DHT22;4156;50.908;6.974;2022-10-22T16:47:20;17.50;99.90
8231;DHT22;4156;50.908;6.974;2022-10-22T16:49:45;17.50;99.90
8231;DHT22;4156;50.908;6.974;2022-10-22T16:52:11;17.50;99.90
8231;DHT22;4156;50.908;6.974;2022-10-22T16:54:36;17.50;99.90
8231;DHT22;4156;50.908;6.974;2022-10-22T16:57:02;18.00;99.90
8231;DHT22;4156;50.908;6.974;2022-10-22T16:59:27;17.50;99.90
8231;DHT22;4156;50.908;6.974;2022-10-22T17:01:53;17.50;99.90
8231;DHT22;4156;50.908;6.974;2022-10-22T17:04:19;17.50;99.90
8231;DHT22;4156;50.908;6.974;2022-10-22T17:06:44;17.50;99.90
8231;DHT22;4156;50.908;6.974;2022-10-22T17:09:10;17.60;99.90
8231;DHT22;4156;50.908;6.974;2022-10-22T17:11:36;17.50;99.90
8231;DHT22;4156;50.908;6.974;2022-10-22T17:14:02;17.50;99.90
8231;DHT22;4156;50.908;6.974;2022-10-22T17:16:28;17.50;99.90
8231;DHT22;4156;50.908;6.974;2022-10-22T17:18:54;17.50;99.90
8231;DHT22;4156;50.908;6.974;2022-10-22T17:21:20;17.50;99.90
8231;DHT22;4156;50.908;6.974;2022-10-22T17:23:47;17.50;99.90
8231;DHT22;4156;50.908;6.974;2022-10-22T17:26:18;17.50;99.90
8231;DHT22;4156;50.908;6.974;2022-10-22T17:28:45;17.50;99.90
8231;DHT22;4156;50.908;6.974;2022-10-22T17:31:23;17.50;99.90
8231;DHT22;4156;50.908;6.974;2022-10-22T17:33:51;17.50;99.90
8231;DHT22;4156;50.908;6.974;2022-10-22T17:36:18;17.50;99.90
8231;DHT22;4156;50.908;6.974;2022-10-22T17:38:47;17.50;99.90
8231;DHT22;4156;50.908;6.974;2022-10-22T17:41:16;17.50;99.90
8231;DHT22;4156;50.908;6.974;2022-10-22T17:43:42;17.50;99.90
8231;DHT22;4156;50.908;6.974;2022-10-22T17:46:10;17.50;99.90
8231;DHT22;4156;50.908;6.974;2022-10-22T17:48:38;17.50;99.90
8231;DHT22;4156;50.908;6.974;2022-10-22T17:51:11;17.50;99.90
8231;DHT22;4156;50.908;6.974;2022-10-22T17:53:39;17.40;99.90
8231;DHT22;4156;50.908;6.974;2022-10-22T17:56:08;17.40;99.90